Panagia — V2OQ5 — position and weather

sailwx.info

Track history (hours):
 
Tides and Currents Weather Stations Pressure Air Temp Water Temp Dewpoint Dewpoint Depression Visibility Wind Speed Wind Dir Waves Ship Positions

Panagia

Last reported at 2014-Aug-01 12:20 UTC. Time now 2014-Aug-02 08:38 UTC.
Position N 57°09' W 002°05'.

Length 120 m; draft 6.6 m.

Type: Ship. MMSI: 304610000.

Date/timePositionNaut miles runAvg speedWind from/ knotsBaromVisibWave heightAir tempDewpointWater temp
2014-Aug-01 12:20N 57°09' W 002°05'0 0.0
2014-Aug-01 11:32N 57°09' W 002°05'0 0.0
2014-Aug-01 10:32N 57°09' W 002°05'0 0.0
2014-Aug-01 09:29N 57°09' W 002°05'0 0.0
2014-Aug-01 08:26N 57°09' W 002°05'0 0.0
2014-Aug-01 06:23N 57°09' W 002°05'0 0.2
2014-Aug-01 05:33N 57°09' W 002°05'15812.0
2014-Jul-31 16:22N 54°47' E 000°01'1612.6
2014-Jul-31 15:07N 54°33' E 000°13'713.3
2014-Jul-31 14:33N 54°26' E 000°19'1413.8
2014-Jul-31 13:33N 54°14' E 000°29'1414.1
2014-Jul-31 12:32N 54°01' E 000°40'5713.0
2014-Jul-31 08:08N 53°12' E 001°30'712.6
2014-Jul-31 07:33N 53°06' E 001°35'1313.0
2014-Jul-31 06:33N 52°57' E 001°52'1713.3
2014-Jul-31 05:15N 52°41' E 002°03'1115.8
2014-Jul-31 04:33N 52°31' E 001°60'1715.7
2014-Jul-31 03:30N 52°14' E 001°55'1415.0
2014-Jul-31 02:33N 52°00' E 001°50'1313.5
2014-Jul-31 01:33N 51°47' E 001°49'1312.8
2014-Jul-31 00:33N 51°34' E 001°51'1411.8
2014-Jul-30 23:24N 51°22' E 002°02'1012.2
2014-Jul-30 22:32N 51°14' E 001°51'1111.5
2014-Jul-30 21:33N 51°05' E 001°40'1111.4
2014-Jul-30 20:33N 50°57' E 001°28'1611.8
2014-Jul-30 19:11N 50°42' E 001°18'2112.8
2014-Jul-30 17:31N 50°29' E 000°51'1212.9
2014-Jul-30 16:33N 50°26' E 000°32'1312.8
2014-Jul-30 15:33N 50°22' E 000°13'5513.7
2014-Jul-30 11:33N 50°07' W 001°09'6416.0
2014-Jul-30 07:33N 49°49' W 002°45'  
2014-Jul-27 19:22N 43°47' W 005°23'1314.0
2014-Jul-27 18:24N 43°49' W 005°42'1213.7
2014-Jul-27 17:32N 43°50' W 005°58'  
Track history (hours):
 
Tides and Currents Weather Stations Pressure Air Temp Water Temp Dewpoint Dewpoint Depression Visibility Wind Speed Wind Dir Waves Ship Positions

Panagia

Last reported at 2014-Aug-01 12:20 UTC. Time now 2014-Aug-02 08:38 UTC.
Position N 57°09' W 002°05'.

Length 120 m; draft 6.6 m.

Type: Ship. MMSI: 304610000.

Date/timePositionNaut miles runAvg speedWind from/ knotsBaromVisibWave heightAir tempDewpointWater temp
2014-Aug-01 12:20N 57°09' W 002°05'0 0.0
2014-Aug-01 11:32N 57°09' W 002°05'0 0.0
2014-Aug-01 10:32N 57°09' W 002°05'0 0.0
2014-Aug-01 09:29N 57°09' W 002°05'0 0.0
2014-Aug-01 08:26N 57°09' W 002°05'0 0.0
2014-Aug-01 06:23N 57°09' W 002°05'0 0.2
2014-Aug-01 05:33N 57°09' W 002°05'15812.0
2014-Jul-31 16:22N 54°47' E 000°01'1612.6
2014-Jul-31 15:07N 54°33' E 000°13'713.3
2014-Jul-31 14:33N 54°26' E 000°19'1413.8
2014-Jul-31 13:33N 54°14' E 000°29'1414.1
2014-Jul-31 12:32N 54°01' E 000°40'5713.0
2014-Jul-31 08:08N 53°12' E 001°30'712.6
2014-Jul-31 07:33N 53°06' E 001°35'1313.0
2014-Jul-31 06:33N 52°57' E 001°52'1713.3
2014-Jul-31 05:15N 52°41' E 002°03'1115.8
2014-Jul-31 04:33N 52°31' E 001°60'1715.7
2014-Jul-31 03:30N 52°14' E 001°55'1415.0
2014-Jul-31 02:33N 52°00' E 001°50'1313.5
2014-Jul-31 01:33N 51°47' E 001°49'1312.8
2014-Jul-31 00:33N 51°34' E 001°51'1411.8
2014-Jul-30 23:24N 51°22' E 002°02'1012.2
2014-Jul-30 22:32N 51°14' E 001°51'1111.5
2014-Jul-30 21:33N 51°05' E 001°40'1111.4
2014-Jul-30 20:33N 50°57' E 001°28'1611.8
2014-Jul-30 19:11N 50°42' E 001°18'2112.8
2014-Jul-30 17:31N 50°29' E 000°51'1212.9
2014-Jul-30 16:33N 50°26' E 000°32'1312.8
2014-Jul-30 15:33N 50°22' E 000°13'5513.7
2014-Jul-30 11:33N 50°07' W 001°09'6416.0
2014-Jul-30 07:33N 49°49' W 002°45'  
2014-Jul-27 19:22N 43°47' W 005°23'1314.0
2014-Jul-27 18:24N 43°49' W 005°42'1213.7
2014-Jul-27 17:32N 43°50' W 005°58'  

Dump ship's entire track history